Time;durP1;ratioP1;P1;durP2;ratioP2;P2;SDS_P1;SDS_P2;PMS_P1;PMS_P2;Temp;Humidity;BMP_temperature;BMP_pressure;BME280_temperature;BME280_humidity;BME280_pressure;Samples;Min_cycle;Max_cycle;Signal;HPM_P1;HPM_P2
2023/08/16 00:01:52;;;;;;;;;;;;;;;14.74;100.00;102018.59;4999492;28;19929;-90
2023/08/16 00:04:42;;;;;;;;;;;;;;;14.67;100.00;102015.31;5003990;28;19921;-89
2023/08/16 00:07:27;;;;;;;;;;;;;;;14.59;100.00;102006.78;4995105;28;20557;-90
2023/08/16 00:10:13;;;;;;;;;;;;;;;14.52;100.00;102007.06;4996209;28;19971;-91
2023/08/16 00:13:01;;;;;;;;;;;;;;;14.45;100.00;102016.25;4993076;28;19921;-89
2023/08/16 00:15:47;;;;;;;;;;;;;;;14.39;100.00;102017.34;4991551;28;19929;-89
2023/08/16 00:18:33;;;;;;;;;;;;;;;14.33;100.00;102014.09;4998524;28;20020;-90
2023/08/16 00:21:21;;;;;;;;;;;;;;;14.28;100.00;102026.75;5003275;28;19973;-90
2023/08/16 00:24:07;;;;;;;;;;;;;;;14.25;100.00;102015.31;4994578;28;19921;-90
2023/08/16 00:26:52;;;;;;;;;;;;;;;14.27;100.00;102015.22;5003667;28;19975;-90
2023/08/16 00:29:38;;;;;;;;;;;;;;;14.28;100.00;102024.09;5002015;28;19943;-90
2023/08/16 00:32:24;;;;;;;;;;;;;;;14.25;100.00;102015.31;5002617;28;19921;-88
2023/08/16 00:35:09;;;;;;;;;;;;;;;14.25;100.00;102017.09;4998572;28;19925;-88
2023/08/16 00:37:58;;;;;;;;;;;;;;;14.22;100.00;102026.06;5013111;28;19925;-89
2023/08/16 00:40:50;;;;;;;;;;;;;;;14.19;100.00;102020.88;4987342;28;19918;-88
2023/08/16 00:43:36;;;;;;;;;;;;;;;14.16;100.00;102018.34;4999968;28;20023;-90
2023/08/16 00:46:22;;;;;;;;;;;;;;;14.13;100.00;102029.13;4994359;28;19925;-91
2023/08/16 00:49:07;;;;;;;;;;;;;;;14.13;100.00;102026.47;5015259;28;19928;-90
2023/08/16 00:51:53;;;;;;;;;;;;;;;14.15;100.00;102029.91;4987245;28;19944;-93
2023/08/16 00:54:41;;;;;;;;;;;;;;;14.13;100.00;102043.28;5002331;28;19921;-92
2023/08/16 00:57:36;;;;;;;;;;;;;;;14.12;100.00;102033.56;4991918;28;19962;-92
2023/08/16 01:00:25;;;;;;;;;;;;;;;14.11;100.00;102039.84;4986291;28;19925;-89
2023/08/16 01:03:13;;;;;;;;;;;;;;;14.08;100.00;102042.63;5005837;28;19925;-89
2023/08/16 01:05:59;;;;;;;;;;;;;;;14.06;100.00;102033.81;5001124;28;19932;-88
2023/08/16 01:08:45;;;;;;;;;;;;;;;14.03;100.00;102035.75;4990109;28;19948;-95
2023/08/16 01:11:36;;;;;;;;;;;;;;;14.01;100.00;102040.28;5004426;28;19928;-89
2023/08/16 01:14:35;;;;;;;;;;;;;;;13.97;100.00;102032.44;5000435;28;19936;-87
2023/08/16 01:17:27;;;;;;;;;;;;;;;13.95;100.00;102036.94;4994335;28;19937;-90
2023/08/16 01:20:13;;;;;;;;;;;;;;;13.95;100.00;102041.41;5008417;28;19925;-87
2023/08/16 01:23:13;;;;;;;;;;;;;;;13.93;100.00;102041.47;4984322;28;20433;-90
2023/08/16 01:26:09;;;;;;;;;;;;;;;13.92;100.00;102041.50;4986246;28;19925;-89
2023/08/16 01:28:54;;;;;;;;;;;;;;;13.93;100.00;102043.25;5007505;28;19982;-88
2023/08/16 01:31:44;;;;;;;;;;;;;;;13.91;100.00;102040.66;5002572;28;19925;-88
2023/08/16 01:34:32;;;;;;;;;;;;;;;13.91;100.00;102042.44;4998840;28;19928;-90
2023/08/16 01:37:17;;;;;;;;;;;;;;;13.89;100.00;102042.50;4985422;28;22123;-89
2023/08/16 01:40:04;;;;;;;;;;;;;;;13.89;100.00;102039.00;4987536;28;19956;-89
2023/08/16 01:42:50;;;;;;;;;;;;;;;13.89;100.00;102045.16;4998711;28;19936;-88
2023/08/16 01:45:36;;;;;;;;;;;;;;;13.89;100.00;102039.00;4983105;28;19965;-88
2023/08/16 01:48:22;;;;;;;;;;;;;;;13.87;100.00;102057.69;4987132;28;20513;-88
2023/08/16 01:51:07;;;;;;;;;;;;;;;13.86;100.00;102055.94;4997898;28;20671;-88
2023/08/16 01:53:53;;;;;;;;;;;;;;;13.85;100.00;102055.06;5000905;28;19917;-88
2023/08/16 01:56:44;;;;;;;;;;;;;;;13.83;100.00;102053.41;4999039;28;19965;-87
2023/08/16 01:59:32;;;;;;;;;;;;;;;13.81;100.00;102058.81;4991200;28;19925;-88
2023/08/16 02:02:20;;;;;;;;;;;;;;;13.79;100.00;102057.97;4999091;28;19960;-86
2023/08/16 02:05:06;;;;;;;;;;;;;;;13.77;100.00;102056.34;4997951;28;19925;-89
2023/08/16 02:07:54;;;;;;;;;;;;;;;13.75;100.00;102058.16;5010443;28;19928;-88
2023/08/16 02:10:40;;;;;;;;;;;;;;;13.72;100.00;102064.47;4992141;28;20591;-89
2023/08/16 02:13:26;;;;;;;;;;;;;;;13.71;100.00;102060.06;4983395;28;20259;-87
2023/08/16 02:16:11;;;;;;;;;;;;;;;13.70;100.00;102072.53;4998932;28;19932;-88
2023/08/16 02:18:57;;;;;;;;;;;;;;;13.70;100.00;102071.66;5011789;28;19929;-88
2023/08/16 02:21:43;;;;;;;;;;;;;;;13.67;100.00;102069.13;4991719;28;19924;-87
2023/08/16 02:24:29;;;;;;;;;;;;;;;13.65;100.00;102061.19;4985945;28;19929;-89
2023/08/16 02:27:14;;;;;;;;;;;;;;;13.64;100.00;102062.13;4985449;28;20304;-89
2023/08/16 02:30:00;;;;;;;;;;;;;;;13.62;100.00;102058.63;5005084;28;19965;-88
2023/08/16 02:32:49;;;;;;;;;;;;;;;13.60;100.00;102067.59;4981251;28;19952;-85
2023/08/16 02:35:34;;;;;;;;;;;;;;;13.57;100.00;102071.28;5008345;28;21886;-88
2023/08/16 02:38:20;;;;;;;;;;;;;;;13.54;100.00;102064.28;5008753;28;19925;-86
2023/08/16 02:41:06;;;;;;;;;;;;;;;13.53;100.00;102059.00;4997194;28;19929;-89
2023/08/16 02:43:51;;;;;;;;;;;;;;;13.50;100.00;102067.13;4999146;28;19948;-86
2023/08/16 02:46:37;;;;;;;;;;;;;;;13.47;100.00;102057.47;4986309;28;19940;-88
2023/08/16 02:49:22;;;;;;;;;;;;;;;13.46;100.00;102062.84;4996042;28;19921;-89
2023/08/16 02:52:08;;;;;;;;;;;;;;;13.44;100.00;102069.06;4988561;28;20423;-90
2023/08/16 02:54:54;;;;;;;;;;;;;;;13.46;100.00;102065.50;4996782;28;19921;-88
2023/08/16 02:57:39;;;;;;;;;;;;;;;13.44;100.00;102065.50;4995523;28;19950;-87
2023/08/16 03:00:25;;;;;;;;;;;;;;;13.44;100.00;102060.19;4993739;28;20599;-88
2023/08/16 03:03:11;;;;;;;;;;;;;;;13.43;100.00;102059.34;4984480;28;19921;-88
2023/08/16 03:05:57;;;;;;;;;;;;;;;13.42;100.00;102062.91;4996700;28;19925;-89
2023/08/16 03:08:42;;;;;;;;;;;;;;;13.41;100.00;102055.84;4993046;28;19968;-89
2023/08/16 03:11:28;;;;;;;;;;;;;;;13.40;100.00;102050.63;4983600;28;19917;-88
2023/08/16 03:14:14;;;;;;;;;;;;;;;13.39;100.00;102057.72;4993717;28;19936;-88
2023/08/16 03:16:59;;;;;;;;;;;;;;;13.39;100.00;102055.06;4998137;28;19991;-88
2023/08/16 03:19:48;;;;;;;;;;;;;;;13.38;100.00;102061.31;4995734;28;20303;-88
2023/08/16 03:22:34;;;;;;;;;;;;;;;13.37;100.00;102053.38;5000012;28;19925;-89
2023/08/16 03:25:19;;;;;;;;;;;;;;;13.35;100.00;102056.09;4984216;28;21122;-89
2023/08/16 03:28:05;;;;;;;;;;;;;;;13.37;100.00;102058.69;4998077;28;20030;-89
2023/08/16 03:30:50;;;;;;;;;;;;;;;13.36;100.00;102054.31;4995992;28;20015;-88
2023/08/16 03:33:36;;;;;;;;;;;;;;;13.35;100.00;102058.75;5009157;28;20002;-88
2023/08/16 03:36:22;;;;;;;;;;;;;;;13.33;100.00;102051.78;4997116;28;19933;-87
2023/08/16 03:39:07;;;;;;;;;;;;;;;13.30;100.00;102060.72;5006883;28;19953;-89
2023/08/16 03:41:53;;;;;;;;;;;;;;;13.29;100.00;102061.66;5001352;28;20004;-88
2023/08/16 03:44:41;;;;;;;;;;;;;;;13.25;100.00;102062.69;5002871;28;19956;-88
2023/08/16 03:47:27;;;;;;;;;;;;;;;13.23;100.00;102075.19;5005690;28;19929;-88
2023/08/16 03:50:16;;;;;;;;;;;;;;;13.24;100.00;102079.56;5015104;28;19939;-88
2023/08/16 03:53:02;;;;;;;;;;;;;;;13.28;100.00;102071.41;4994778;28;20145;-89
2023/08/16 03:55:47;;;;;;;;;;;;;;;13.30;100.00;102077.53;5005559;28;20296;-88
2023/08/16 03:58:33;;;;;;;;;;;;;;;13.30;100.00;102085.50;4994099;28;19968;-88
2023/08/16 04:01:22;;;;;;;;;;;;;;;13.25;100.00;102089.28;4992633;28;19921;-89
2023/08/16 04:04:08;;;;;;;;;;;;;;;13.17;100.00;102098.41;5004265;28;20061;-87
2023/08/16 04:06:54;;;;;;;;;;;;;;;13.15;100.00;102088.75;5020247;28;20003;-89
2023/08/16 04:09:42;;;;;;;;;;;;;;;13.13;100.00;102094.13;5003178;28;19928;-87
2023/08/16 04:12:27;;;;;;;;;;;;;;;13.12;100.00;102103.03;5007486;28;20049;-88
2023/08/16 04:15:13;;;;;;;;;;;;;;;13.09;100.00;102092.50;4996123;28;20363;-87
2023/08/16 04:18:02;;;;;;;;;;;;;;;13.13;100.00;102099.44;5017645;28;19921;-88
2023/08/16 04:20:47;;;;;;;;;;;;;;;13.15;100.00;102100.28;4996323;28;19939;-88
2023/08/16 04:23:33;;;;;;;;;;;;;;;13.13;100.00;102104.75;4997114;28;19924;-88
2023/08/16 04:26:19;;;;;;;;;;;;;;;13.11;100.00;102095.97;5009894;28;19921;-88
2023/08/16 04:29:04;;;;;;;;;;;;;;;13.08;100.00;102093.41;5003909;28;19951;-88
2023/08/16 04:31:50;;;;;;;;;;;;;;;13.06;100.00;102100.56;5008151;28;20579;-88
2023/08/16 04:34:36;;;;;;;;;;;;;;;13.04;100.00;102103.28;5003293;28;19925;-86
2023/08/16 04:37:21;;;;;;;;;;;;;;;12.99;100.00;102099.94;5002638;28;19928;-88
2023/08/16 04:40:07;;;;;;;;;;;;;;;12.99;100.00;102105.25;5002267;28;19947;-87
2023/08/16 04:42:53;;;;;;;;;;;;;;;13.02;100.00;102112.25;5007815;28;21858;-87
2023/08/16 04:45:38;;;;;;;;;;;;;;;13.04;100.00;102113.06;5000540;28;19929;-87
2023/08/16 04:48:24;;;;;;;;;;;;;;;13.04;100.00;102113.91;5002171;28;19925;-87
2023/08/16 04:51:10;;;;;;;;;;;;;;;13.05;100.00;102112.13;4999361;28;19960;-88
2023/08/16 04:53:55;;;;;;;;;;;;;;;13.05;100.00;102117.47;4999975;28;20410;-86
2023/08/16 04:56:41;;;;;;;;;;;;;;;13.02;100.00;102117.59;4991031;28;19956;-87
2023/08/16 04:59:27;;;;;;;;;;;;;;;13.01;100.00;102113.16;5009528;28;19935;-88
2023/08/16 05:02:12;;;;;;;;;;;;;;;13.02;100.00;102114.94;5013161;28;20257;-89
2023/08/16 05:04:58;;;;;;;;;;;;;;;13.03;100.00;102114.84;5013980;28;19929;-88
2023/08/16 05:07:44;;;;;;;;;;;;;;;13.03;100.00;102108.69;4999135;28;19929;-88
2023/08/16 05:10:29;;;;;;;;;;;;;;;13.03;100.00;102120.16;5013530;28;19932;-87
2023/08/16 05:13:17;;;;;;;;;;;;;;;13.04;100.00;102116.56;4988741;28;20033;-88
2023/08/16 05:16:03;;;;;;;;;;;;;;;13.06;100.00;102110.38;5003564;28;19920;-89
2023/08/16 05:18:49;;;;;;;;;;;;;;;13.07;100.00;102120.91;4991247;28;19927;-88
2023/08/16 05:21:34;;;;;;;;;;;;;;;13.08;100.00;102127.97;4998381;28;19931;-90
2023/08/16 05:24:20;;;;;;;;;;;;;;;13.15;100.00;102131.28;5005134;28;19930;-89
2023/08/16 05:56:21;;;;;;;;;;;;;;;14.16;100.00;102148.81;5705825;23;19935;-87
2023/08/16 05:59:06;;;;;;;;;;;;;;;14.22;100.00;102153.06;5004111;28;19925;-87
2023/08/16 06:01:52;;;;;;;;;;;;;;;14.27;100.00;102151.06;5016626;28;19952;-89
2023/08/16 06:04:38;;;;;;;;;;;;;;;14.30;100.00;102161.59;5013409;28;20399;-88
2023/08/16 06:07:25;;;;;;;;;;;;;;;14.39;100.00;102158.56;4987446;28;19956;-88
2023/08/16 06:10:10;;;;;;;;;;;;;;;14.48;100.00;102164.44;5016775;28;20003;-88
2023/08/16 06:12:56;;;;;;;;;;;;;;;14.58;100.00;102160.47;5007910;28;20043;-87
2023/08/16 06:15:42;;;;;;;;;;;;;;;14.73;100.00;102161.63;4999110;28;20307;-85
2023/08/16 06:18:27;;;;;;;;;;;;;;;14.89;100.00;102163.69;5012036;28;19921;-87
2023/08/16 06:21:13;;;;;;;;;;;;;;;15.05;100.00;102163.88;4997876;28;19921;-87
2023/08/16 06:23:59;;;;;;;;;;;;;;;15.20;100.00;102163.19;5003556;28;19925;-87
2023/08/16 06:26:44;;;;;;;;;;;;;;;15.34;100.00;102165.28;5016700;28;19925;-86
2023/08/16 06:29:30;;;;;;;;;;;;;;;15.52;100.00;102170.69;5014921;28;19925;-88
2023/08/16 06:32:16;;;;;;;;;;;;;;;15.71;100.00;102178.75;5002544;28;19940;-87
2023/08/16 06:35:04;;;;;;;;;;;;;;;15.91;100.00;102163.56;5008267;28;19921;-87
2023/08/16 06:37:50;;;;;;;;;;;;;;;16.12;100.00;102164.41;5016881;28;19960;-87
2023/08/16 06:40:36;;;;;;;;;;;;;;;16.31;100.00;102171.53;5016344;28;19978;-86
2023/08/16 06:43:21;;;;;;;;;;;;;;;16.50;100.00;102159.94;5006869;28;19928;-86
2023/08/16 06:46:07;;;;;;;;;;;;;;;16.75;100.00;102174.72;4991498;28;20985;-86
2023/08/16 06:48:53;;;;;;;;;;;;;;;16.97;100.00;102174.50;5004758;28;20402;-86
2023/08/16 06:51:41;;;;;;;;;;;;;;;17.15;100.00;102178.06;5005492;28;20394;-85
2023/08/16 06:54:30;;;;;;;;;;;;;;;17.31;100.00;102179.91;5005663;28;20015;-84
2023/08/16 06:57:15;;;;;;;;;;;;;;;17.44;100.00;102183.69;5000735;28;19924;-85
2023/08/16 07:00:03;;;;;;;;;;;;;;;17.62;100.00;102189.00;5000112;28;20043;-84
2023/08/16 07:02:49;;;;;;;;;;;;;;;17.74;100.00;102195.50;5010428;28;19927;-83
2023/08/16 07:05:35;;;;;;;;;;;;;;;17.87;100.00;102190.34;5010111;28;19958;-82
2023/08/16 07:08:20;;;;;;;;;;;;;;;18.01;100.00;102200.28;4997622;28;19939;-76
2023/08/16 07:11:06;;;;;;;;;;;;;;;18.17;100.00;102201.19;5011460;28;19921;-80
2023/08/16 07:13:52;;;;;;;;;;;;;;;18.29;100.00;102199.63;5015774;28;19932;-80
2023/08/16 07:16:39;;;;;;;;;;;;;;;18.27;100.00;102203.34;5016881;28;19929;-80
2023/08/16 07:19:25;;;;;;;;;;;;;;;18.31;100.00;102210.28;5008467;28;19921;-79
2023/08/16 07:22:11;;;;;;;;;;;;;;;18.27;100.00;102211.38;5001049;28;19929;-79
2023/08/16 07:24:56;;;;;;;;;;;;;;;18.29;100.00;102212.16;5004432;28;20700;-80
2023/08/16 07:27:42;;;;;;;;;;;;;;;18.31;100.00;102213.78;5003527;28;19925;-80
2023/08/16 07:30:28;;;;;;;;;;;;;;;18.37;100.00;102217.09;5015299;28;19925;-81
2023/08/16 07:33:13;;;;;;;;;;;;;;;18.49;100.00;102216.41;5007891;28;21873;-78
2023/08/16 07:36:03;;;;;;;;;;;;;;;18.61;100.00;102212.13;4997083;28;19921;-79
2023/08/16 07:38:49;;;;;;;;;;;;;;;18.72;100.00;102217.75;5000763;28;20300;-78
2023/08/16 07:41:35;;;;;;;;;;;;;;;18.79;100.00;102222.75;5015411;28;20458;-78
2023/08/16 07:44:20;;;;;;;;;;;;;;;18.84;100.00;102223.31;5013056;28;19972;-77
2023/08/16 07:47:12;;;;;;;;;;;;;;;18.92;100.00;102223.75;5010626;28;20137;-78
2023/08/16 07:49:58;;;;;;;;;;;;;;;19.04;100.00;102224.88;5001148;28;20000;-77
2023/08/16 07:52:45;;;;;;;;;;;;;;;19.21;100.00;102218.47;4997275;28;19928;-76
2023/08/16 07:55:33;;;;;;;;;;;;;;;19.38;100.00;102220.13;5000537;28;19940;-76
2023/08/16 07:58:19;;;;;;;;;;;;;;;19.53;100.00;102223.72;5012275;28;19959;-76
2023/08/16 08:01:04;;;;;;;;;;;;;;;19.70;100.00;102226.28;5007869;28;20355;-77
2023/08/16 08:03:50;;;;;;;;;;;;;;;19.87;100.00;102231.47;5009446;28;20722;-75
2023/08/16 08:06:36;;;;;;;;;;;;;;;19.99;100.00;102234.38;5004834;28;20008;-75
2023/08/16 08:09:21;;;;;;;;;;;;;;;20.01;100.00;102235.13;4997012;28;20392;-76
2023/08/16 08:12:07;;;;;;;;;;;;;;;20.04;100.00;102234.94;4996000;28;20047;-76
2023/08/16 08:14:53;;;;;;;;;;;;;;;20.16;100.00;102238.66;4997034;28;20225;-75
2023/08/16 08:17:42;;;;;;;;;;;;;;;20.37;100.00;102236.38;5011229;28;19925;-77
2023/08/16 08:20:27;;;;;;;;;;;;;;;20.48;100.00;102243.75;5004422;28;20716;-75
2023/08/16 08:23:13;;;;;;;;;;;;;;;20.58;100.00;102239.50;4996438;28;19955;-75
2023/08/16 08:25:59;;;;;;;;;;;;;;;20.67;100.00;102243.41;5000460;28;19928;-76
2023/08/16 08:28:46;;;;;;;;;;;;;;;20.69;100.00;102251.41;5011882;28;19929;-75
2023/08/16 08:31:31;;;;;;;;;;;;;;;20.65;100.00;102253.44;5002541;28;19956;-75
2023/08/16 08:34:17;;;;;;;;;;;;;;;20.63;100.00;102256.22;5002947;28;20035;-75
2023/08/16 08:37:03;;;;;;;;;;;;;;;20.67;100.00;102251.50;5013615;28;20394;-76
2023/08/16 08:39:48;;;;;;;;;;;;;;;20.75;100.00;102259.91;5014658;28;19932;-75
2023/08/16 08:42:34;;;;;;;;;;;;;;;20.90;100.00;102262.56;5014899;28;19929;-76
2023/08/16 08:45:20;;;;;;;;;;;;;;;20.89;100.00;102258.16;5003175;28;20398;-75
2023/08/16 08:48:05;;;;;;;;;;;;;;;20.79;100.00;102263.25;4987429;28;19925;-76
2023/08/16 08:50:51;;;;;;;;;;;;;;;20.88;100.00;102261.81;5015020;28;20015;-83
2023/08/16 08:53:37;;;;;;;;;;;;;;;20.86;100.00;102263.75;5013524;28;19932;-81
2023/08/16 08:56:23;;;;;;;;;;;;;;;20.75;100.00;102264.41;5004427;28;19924;-81
2023/08/16 08:59:08;;;;;;;;;;;;;;;20.69;100.00;102264.84;5005135;28;20892;-81
2023/08/16 09:01:54;;;;;;;;;;;;;;;20.68;100.00;102261.28;5007310;28;19979;-82
2023/08/16 09:04:40;;;;;;;;;;;;;;;20.68;100.00;102263.97;5018590;28;19921;-82
2023/08/16 09:07:26;;;;;;;;;;;;;;;20.69;100.00;102262.16;5016949;28;20016;-81
2023/08/16 09:10:12;;;;;;;;;;;;;;;20.80;100.00;102262.28;5005919;28;19992;-83
2023/08/16 09:12:57;;;;;;;;;;;;;;;20.93;100.00;102269.56;5002713;28;19928;-81
2023/08/16 09:15:43;;;;;;;;;;;;;;;20.84;100.00;102265.66;5015026;28;20376;-81
2023/08/16 09:18:29;;;;;;;;;;;;;;;20.75;100.00;102272.47;5006066;28;21919;-82
2023/08/16 09:21:16;;;;;;;;;;;;;;;20.79;100.00;102276.72;5004905;28;20395;-82
2023/08/16 09:24:02;;;;;;;;;;;;;;;20.86;100.00;102274.50;4992033;28;20127;-82
2023/08/16 09:26:52;;;;;;;;;;;;;;;20.99;100.00;102279.94;5000249;28;20011;-79
2023/08/16 09:29:39;;;;;;;;;;;;;;;21.14;100.00;102272.66;4991040;28;20606;-82
2023/08/16 09:32:28;;;;;;;;;;;;;;;21.26;100.00;102277.19;5005863;28;19928;-82
2023/08/16 09:35:16;;;;;;;;;;;;;;;21.24;100.00;102271.03;5006965;28;19920;-82
2023/08/16 09:38:02;;;;;;;;;;;;;;;21.27;100.00;102272.66;5006206;28;19936;-81
2023/08/16 09:40:51;;;;;;;;;;;;;;;21.25;100.00;102274.59;5006779;28;20383;-82
2023/08/16 09:43:36;;;;;;;;;;;;;;;21.28;100.00;102269.00;5016650;28;19925;-81
2023/08/16 09:46:22;;;;;;;;;;;;;;;21.39;100.00;102271.81;5005461;28;19925;-81
2023/08/16 09:49:08;;;;;;;;;;;;;;;21.52;100.00;102265.56;5005089;28;20418;-82
2023/08/16 09:51:57;;;;;;;;;;;;;;;21.56;100.00;102265.25;5005802;28;19950;-82
2023/08/16 09:54:46;;;;;;;;;;;;;;;21.78;100.00;102265.59;5017414;28;19921;-81
2023/08/16 09:57:32;;;;;;;;;;;;;;;21.86;100.00;102267.75;4991356;28;19936;-82
2023/08/16 10:00:18;;;;;;;;;;;;;;;22.00;100.00;102267.59;5015868;28;20599;-82
2023/08/16 10:03:03;;;;;;;;;;;;;;;22.18;100.00;102261.88;5015689;28;19925;-82
2023/08/16 10:05:50;;;;;;;;;;;;;;;22.44;100.00;102262.63;5017168;28;19921;-82
2023/08/16 10:08:36;;;;;;;;;;;;;;;22.62;99.47;102255.03;4989983;28;20291;-83
2023/08/16 10:11:26;;;;;;;;;;;;;;;22.76;99.56;102250.44;5006555;28;20058;-82
2023/08/16 10:14:12;;;;;;;;;;;;;;;22.85;98.87;102255.16;4990854;28;19979;-82
2023/08/16 10:16:59;;;;;;;;;;;;;;;22.77;94.17;102257.56;5014254;28;21585;-82
2023/08/16 10:19:47;;;;;;;;;;;;;;;22.50;94.16;102256.78;5003182;28;20036;-82
2023/08/16 10:22:35;;;;;;;;;;;;;;;22.16;96.64;102248.47;5014258;28;20030;-82
2023/08/16 10:25:23;;;;;;;;;;;;;;;21.84;98.24;102254.38;5005567;28;20350;-82
2023/08/16 10:28:13;;;;;;;;;;;;;;;21.68;100.00;102243.81;4992093;28;19966;-82
2023/08/16 10:30:59;;;;;;;;;;;;;;;21.71;98.67;102243.59;5003568;28;19925;-82
2023/08/16 10:33:46;;;;;;;;;;;;;;;21.77;95.37;102248.56;5003581;28;19921;-81
2023/08/16 10:36:31;;;;;;;;;;;;;;;21.79;94.32;102241.22;4989783;28;19921;-81
2023/08/16 10:39:23;;;;;;;;;;;;;;;21.84;95.25;102244.47;5007546;28;19975;-77
2023/08/16 10:42:13;;;;;;;;;;;;;;;21.76;92.92;102249.53;4993650;28;19920;-77
2023/08/16 10:44:58;;;;;;;;;;;;;;;21.61;93.73;102248.75;5007958;28;19924;-77
2023/08/16 10:47:44;;;;;;;;;;;;;;;21.54;95.00;102252.84;5008765;28;20552;-77
2023/08/16 10:50:36;;;;;;;;;;;;;;;21.61;94.68;102258.69;4997925;28;19925;-78
2023/08/16 10:53:25;;;;;;;;;;;;;;;21.76;96.04;102257.63;4997041;28;19932;-77
2023/08/16 10:56:11;;;;;;;;;;;;;;;21.83;92.14;102252.63;4993807;28;19920;-77
2023/08/16 10:58:57;;;;;;;;;;;;;;;21.84;96.32;102257.94;5008361;28;19925;-77
2023/08/16 11:01:44;;;;;;;;;;;;;;;21.95;92.42;102254.47;5001273;28;20314;-81
2023/08/16 11:04:34;;;;;;;;;;;;;;;22.03;92.74;102259.31;5002250;28;20403;-82
2023/08/16 11:07:23;;;;;;;;;;;;;;;22.10;89.73;102255.19;5003000;28;20241;-81
2023/08/16 11:10:10;;;;;;;;;;;;;;;22.16;90.27;102253.88;5016291;28;19960;-82
2023/08/16 11:12:56;;;;;;;;;;;;;;;22.18;89.75;102260.00;5016693;28;19969;-82
2023/08/16 11:15:45;;;;;;;;;;;;;;;22.19;91.17;102259.06;5015579;28;19929;-82
2023/08/16 11:18:32;;;;;;;;;;;;;;;22.17;91.26;102262.84;5016118;28;21728;-83
2023/08/16 11:21:19;;;;;;;;;;;;;;;22.05;91.29;102259.22;5001666;28;19924;-84
2023/08/16 11:24:05;;;;;;;;;;;;;;;21.96;93.23;102260.72;5002951;28;20341;-82
2023/08/16 11:26:52;;;;;;;;;;;;;;;21.83;91.41;102258.03;5016810;28;20100;-81
2023/08/16 11:29:38;;;;;;;;;;;;;;;21.76;93.67;102257.63;5016525;28;19925;-83
2023/08/16 11:32:35;;;;;;;;;;;;;;;21.80;93.17;102260.97;5016956;28;19940;-83
2023/08/16 11:35:23;;;;;;;;;;;;;;;21.78;91.94;102262.91;5017178;28;19929;-82
2023/08/16 11:38:12;;;;;;;;;;;;;;;21.69;92.20;102261.72;5013930;28;19959;-83
2023/08/16 11:40:58;;;;;;;;;;;;;;;21.57;93.08;102264.28;5012986;28;19972;-84
2023/08/16 11:43:43;;;;;;;;;;;;;;;21.56;93.91;102267.94;5004362;28;19924;-83
2023/08/16 11:46:39;;;;;;;;;;;;;;;21.64;91.99;102263.84;5016392;28;19943;-83
2023/08/16 11:49:27;;;;;;;;;;;;;;;21.76;93.18;102256.75;5005748;28;19921;-82
2023/08/16 11:52:12;;;;;;;;;;;;;;;21.87;89.48;102264.06;5014343;28;20309;-81
2023/08/16 11:55:02;;;;;;;;;;;;;;;21.95;89.66;102259.00;5003243;28;19937;-82
2023/08/16 11:57:48;;;;;;;;;;;;;;;22.07;90.82;102260.78;5016897;28;19925;-82
2023/08/16 12:00:33;;;;;;;;;;;;;;;22.18;87.06;102261.88;5006301;28;20464;-81
2023/08/16 12:03:19;;;;;;;;;;;;;;;22.27;87.67;102260.34;5008260;28;20897;-82
2023/08/16 12:06:09;;;;;;;;;;;;;;;22.41;87.09;102262.00;5006098;28;20382;-82
2023/08/16 12:08:54;;;;;;;;;;;;;;;22.58;86.00;102264.34;4994471;28;19979;-82
2023/08/16 12:11:40;;;;;;;;;;;;;;;22.67;84.83;102257.41;5006936;28;19928;-83
2023/08/16 12:14:26;;;;;;;;;;;;;;;22.77;83.85;102263.81;5020724;28;19925;-83
2023/08/16 12:17:11;;;;;;;;;;;;;;;22.93;84.05;102259.94;5021865;28;19928;-83
2023/08/16 12:19:57;;;;;;;;;;;;;;;22.86;79.51;102254.16;5008100;28;20036;-82
2023/08/16 12:22:46;;;;;;;;;;;;;;;22.65;81.58;102254.81;5020528;28;19936;-82
2023/08/16 12:25:31;;;;;;;;;;;;;;;22.50;84.07;102255.94;5007902;28;19925;-81
2023/08/16 12:28:17;;;;;;;;;;;;;;;22.34;84.44;102257.06;5007739;28;19921;-81
2023/08/16 12:31:04;;;;;;;;;;;;;;;22.36;84.31;102256.94;5008013;28;20027;-81
2023/08/16 12:33:50;;;;;;;;;;;;;;;22.31;82.28;102246.50;5019913;28;19954;-80
2023/08/16 12:36:36;;;;;;;;;;;;;;;22.29;82.31;102245.75;5004471;28;19936;-82
2023/08/16 12:39:21;;;;;;;;;;;;;;;22.32;81.96;102247.34;5008024;28;19956;-81
2023/08/16 12:42:11;;;;;;;;;;;;;;;22.35;82.05;102249.84;5018919;28;19929;-81
2023/08/16 12:44:56;;;;;;;;;;;;;;;22.30;81.49;102243.91;5006108;28;19924;-82
2023/08/16 12:47:42;;;;;;;;;;;;;;;22.34;82.07;102246.25;5017978;28;19940;-82
2023/08/16 12:50:28;;;;;;;;;;;;;;;22.38;80.62;102242.38;5018289;28;19924;-81
2023/08/16 12:53:13;;;;;;;;;;;;;;;22.45;83.36;102250.84;5018610;28;19929;-82
2023/08/16 12:55:59;;;;;;;;;;;;;;;22.46;82.93;102249.03;5008057;28;19924;-82
2023/08/16 12:58:45;;;;;;;;;;;;;;;22.50;81.84;102239.75;5004751;28;19921;-82
2023/08/16 13:01:30;;;;;;;;;;;;;;;22.54;80.83;102252.06;5003631;28;20391;-82
2023/08/16 13:04:16;;;;;;;;;;;;;;;22.52;81.18;102248.63;5008054;28;19964;-82
2023/08/16 13:07:03;;;;;;;;;;;;;;;22.51;82.15;102246.91;5010221;28;19920;-82
2023/08/16 13:09:48;;;;;;;;;;;;;;;22.52;82.56;102244.09;5016064;28;20002;-81
2023/08/16 13:12:34;;;;;;;;;;;;;;;22.50;81.74;102247.84;5010085;28;19932;-82
2023/08/16 13:15:20;;;;;;;;;;;;;;;22.49;86.55;102252.38;5018461;28;21456;-79
2023/08/16 13:18:05;;;;;;;;;;;;;;;22.45;82.25;102236.53;5018563;28;19995;-81
2023/08/16 13:20:51;;;;;;;;;;;;;;;22.44;82.69;102237.50;5008511;28;19928;-82
2023/08/16 13:23:37;;;;;;;;;;;;;;;22.51;81.40;102238.81;5017980;28;19928;-81
2023/08/16 13:26:22;;;;;;;;;;;;;;;22.52;83.39;102243.22;5019801;28;19975;-82
2023/08/16 13:29:08;;;;;;;;;;;;;;;22.53;83.53;102239.53;4994354;28;19925;-80
2023/08/16 13:31:54;;;;;;;;;;;;;;;22.52;82.90;102236.00;5018633;28;20020;-81
2023/08/16 13:34:39;;;;;;;;;;;;;;;22.46;83.96;102236.41;5017495;28;19943;-82
2023/08/16 13:37:25;;;;;;;;;;;;;;;22.42;86.77;102228.66;5006048;28;19929;-82
2023/08/16 13:40:11;;;;;;;;;;;;;;;22.43;84.10;102233.94;5018496;28;19921;-83
2023/08/16 13:42:57;;;;;;;;;;;;;;;22.47;82.93;102231.88;5018309;28;20871;-85
2023/08/16 13:45:45;;;;;;;;;;;;;;;22.50;84.46;102223.56;5020468;28;19924;-82
2023/08/16 13:48:33;;;;;;;;;;;;;;;22.53;86.18;102223.34;5005812;28;19929;-82
2023/08/16 13:51:19;;;;;;;;;;;;;;;22.56;81.83;102228.53;5018041;28;19917;-84
2023/08/16 13:54:06;;;;;;;;;;;;;;;22.59;82.68;102232.81;5004781;28;19933;-82
2023/08/16 13:56:52;;;;;;;;;;;;;;;22.63;82.13;102226.22;5017487;28;19921;-83
2023/08/16 13:59:39;;;;;;;;;;;;;;;22.69;82.46;102227.59;5005925;28;21998;-81
2023/08/16 14:02:25;;;;;;;;;;;;;;;22.71;80.74;102220.25;5019220;28;19943;-81
2023/08/16 14:05:10;;;;;;;;;;;;;;;22.63;77.27;102232.50;5017638;28;19921;-82
2023/08/16 14:07:56;;;;;;;;;;;;;;;22.65;79.16;102230.53;5005811;28;20504;-80
2023/08/16 14:10:41;;;;;;;;;;;;;;;22.68;78.76;102224.03;5005248;28;19933;-83
2023/08/16 14:13:30;;;;;;;;;;;;;;;22.71;77.31;102228.34;5016810;28;20283;-82
2023/08/16 14:16:15;;;;;;;;;;;;;;;22.68;77.66;102231.25;5006885;28;19921;-83
2023/08/16 14:19:01;;;;;;;;;;;;;;;22.67;77.78;102224.16;5019408;28;20063;-83
2023/08/16 14:21:47;;;;;;;;;;;;;;;22.63;74.63;102221.69;5015697;28;20344;-86
2023/08/16 14:24:35;;;;;;;;;;;;;;;22.64;78.76;102225.22;4993109;28;19925;-82
2023/08/16 14:27:20;;;;;;;;;;;;;;;22.60;79.11;102219.22;5018259;28;19937;-82
2023/08/16 14:30:06;;;;;;;;;;;;;;;22.55;78.44;102224.09;5005433;28;19927;-83
2023/08/16 14:32:52;;;;;;;;;;;;;;;22.48;78.52;102233.59;5017495;28;19964;-82
2023/08/16 14:35:42;;;;;;;;;;;;;;;22.45;78.40;102231.13;5004306;28;19936;-81
2023/08/16 14:38:28;;;;;;;;;;;;;;;22.42;78.25;102231.34;5003573;28;19930;-82